Time;durP1;ratioP1;P1;durP2;ratioP2;P2;SDS_P1;SDS_P2;PMS_P1;PMS_P2;Temp;Humidity;BMP_temperature;BMP_pressure;BME280_temperature;BME280_humidity;BME280_pressure;Samples;Min_cycle;Max_cycle;Signal;HPM_P1;HPM_P2
2023/01/24 00:00:02;;;;;;;;;;;;;;;1.79;79.37;103503.72;4105046;28;20456;-63
2023/01/24 00:02:08;;;;;;;;;;;;;;;1.82;79.39;103497.44;4103453;28;19926;-63
2023/01/24 00:04:10;;;;;;;;;;;;;;;1.83;79.14;103500.97;4105032;28;20018;-63
2023/01/24 00:06:12;;;;;;;;;;;;;;;1.84;79.18;103502.72;4103318;28;20026;-63
2023/01/24 00:08:14;;;;;;;;;;;;;;;1.83;79.14;103499.16;4106914;28;20452;-62
2023/01/24 00:10:16;;;;;;;;;;;;;;;1.81;78.97;103498.34;4107827;28;20021;-63
2023/01/24 00:12:18;;;;;;;;;;;;;;;1.81;79.16;103495.69;4107303;28;20091;-62
2023/01/24 00:14:20;;;;;;;;;;;;;;;1.79;78.89;103502.88;4106737;28;20029;-63
2023/01/24 00:16:22;;;;;;;;;;;;;;;1.76;79.11;103495.84;4107155;28;20030;-63
2023/01/24 00:18:25;;;;;;;;;;;;;;;1.75;79.09;103510.06;4107146;28;20024;-63
2023/01/24 00:20:27;;;;;;;;;;;;;;;1.77;79.11;103504.69;4107399;28;20017;-63
2023/01/24 00:22:29;;;;;;;;;;;;;;;1.79;79.14;103505.53;4107399;28;19934;-63
2023/01/24 00:24:32;;;;;;;;;;;;;;;1.79;78.83;103505.53;4106551;28;20021;-62
2023/01/24 00:26:34;;;;;;;;;;;;;;;1.78;78.78;103499.31;4113681;28;20024;-63
2023/01/24 00:28:36;;;;;;;;;;;;;;;1.79;79.11;103490.41;4107779;28;20017;-63
2023/01/24 00:30:39;;;;;;;;;;;;;;;1.79;78.97;103493.06;4107002;28;20053;-63
2023/01/24 00:32:43;;;;;;;;;;;;;;;1.76;78.64;103485.19;4105781;28;20013;-63
2023/01/24 00:34:46;;;;;;;;;;;;;;;1.76;78.53;103489.66;4106932;28;20033;-63
2023/01/24 00:36:48;;;;;;;;;;;;;;;1.73;78.49;103487.09;4105533;28;20018;-63
2023/01/24 00:38:50;;;;;;;;;;;;;;;1.73;78.27;103495.06;4105529;28;20030;-63
2023/01/24 00:40:52;;;;;;;;;;;;;;;1.72;78.27;103496.84;4107390;28;20021;-62
2023/01/24 00:42:54;;;;;;;;;;;;;;;1.70;78.07;103501.38;4106242;28;20024;-62
2023/01/24 00:44:56;;;;;;;;;;;;;;;1.68;78.27;103497.00;4105998;28;20013;-63
2023/01/24 00:46:58;;;;;;;;;;;;;;;1.68;78.15;103499.66;4105592;28;20073;-63
2023/01/24 00:49:00;;;;;;;;;;;;;;;1.68;78.35;103505.00;4106772;28;20367;-63
2023/01/24 00:51:03;;;;;;;;;;;;;;;1.68;78.25;103499.66;4105863;28;20058;-62
2023/01/24 00:53:06;;;;;;;;;;;;;;;1.66;78.16;103498.84;4106291;28;20410;-63
2023/01/24 00:55:08;;;;;;;;;;;;;;;1.67;78.30;103511.28;4106389;28;20018;-62
2023/01/24 00:57:10;;;;;;;;;;;;;;;1.63;77.96;103502.50;4105835;28;20389;-63
2023/01/24 00:59:12;;;;;;;;;;;;;;;1.60;77.99;103500.81;4104118;28;19977;-62
2023/01/24 01:01:13;;;;;;;;;;;;;;;1.59;78.11;103504.38;4105823;28;20021;-62
2023/01/24 01:03:16;;;;;;;;;;;;;;;1.58;78.02;103508.00;4107092;28;19926;-62
2023/01/24 01:05:18;;;;;;;;;;;;;;;1.57;78.17;103502.72;4108009;28;20378;-63
2023/01/24 01:07:22;;;;;;;;;;;;;;;1.56;78.27;103499.16;4106243;28;20057;-62
2023/01/24 01:09:24;;;;;;;;;;;;;;;1.56;78.32;103493.81;4106123;28;20016;-63
2023/01/24 01:11:26;;;;;;;;;;;;;;;1.55;78.21;103492.09;4105531;28;20084;-63
2023/01/24 01:13:28;;;;;;;;;;;;;;;1.57;78.39;103498.25;4107280;28;20017;-62
2023/01/24 01:15:30;;;;;;;;;;;;;;;1.57;78.27;103497.38;4105285;28;20504;-63
2023/01/24 01:17:32;;;;;;;;;;;;;;;1.56;78.37;103493.81;4104780;28;20032;-63
2023/01/24 01:19:34;;;;;;;;;;;;;;;1.56;78.64;103491.16;4104759;28;20064;-63
2023/01/24 01:21:36;;;;;;;;;;;;;;;1.57;78.92;103497.38;4105567;28;20015;-63
2023/01/24 01:23:40;;;;;;;;;;;;;;;1.56;78.58;103499.16;4089925;29;19934;-61
2023/01/24 01:25:42;;;;;;;;;;;;;;;1.55;78.63;103505.44;4113449;28;20025;-62
2023/01/24 01:27:44;;;;;;;;;;;;;;;1.53;78.40;103501.91;4106029;28;20017;-62
2023/01/24 01:29:47;;;;;;;;;;;;;;;1.53;78.49;103504.59;4106817;28;20046;-63
2023/01/24 01:31:49;;;;;;;;;;;;;;;1.54;78.49;103514.31;4104369;28;20013;-63
2023/01/24 01:33:51;;;;;;;;;;;;;;;1.55;78.66;103507.19;4112846;28;20061;-62
2023/01/24 01:35:53;;;;;;;;;;;;;;;1.55;78.42;103517.84;4103920;28;20025;-63
2023/01/24 01:37:55;;;;;;;;;;;;;;;1.54;78.48;103517.00;4104611;28;20017;-62
2023/01/24 01:39:58;;;;;;;;;;;;;;;1.52;78.22;103513.53;4104676;28;20033;-62
2023/01/24 01:42:00;;;;;;;;;;;;;;;1.53;78.32;103515.25;4105303;28;20386;-62
2023/01/24 01:46:41;;;;;;;;;;;;;;;1.51;77.44;103514.44;4106148;28;20013;-63
2023/01/24 01:48:43;;;;;;;;;;;;;;;1.49;77.00;103513.63;4106257;28;20028;-63
2023/01/24 01:50:46;;;;;;;;;;;;;;;1.48;77.05;103514.53;4105345;28;20503;-62
2023/01/24 01:52:48;;;;;;;;;;;;;;;1.47;76.79;103515.44;4105226;28;20017;-62
2023/01/24 01:54:50;;;;;;;;;;;;;;;1.45;76.25;103519.94;4105924;28;20021;-62
2023/01/24 01:56:53;;;;;;;;;;;;;;;1.45;76.33;103517.28;4106223;28;20017;-62
2023/01/24 01:58:56;;;;;;;;;;;;;;;1.48;76.28;103516.31;4104842;28;20042;-63
2023/01/24 02:00:58;;;;;;;;;;;;;;;1.48;76.06;103517.19;4104788;28;20025;-63
2023/01/24 02:03:37;;;;;;;;;;;;;;;1.51;75.89;103518.91;4105645;28;20021;-63
2023/01/24 02:05:23;;;;;;;;;;;;;;;1.50;75.42;103512.69;4106232;28;20468;-62
2023/01/24 02:07:27;;;;;;;;;;;;;;;1.49;75.28;103518.06;4111884;28;20037;-63
2023/01/24 02:09:30;;;;;;;;;;;;;;;1.46;75.31;103520.81;4104597;28;20020;-63
2023/01/24 02:11:41;;;;;;;;;;;;;;;1.43;75.13;103527.13;4103595;28;20393;-63
2023/01/24 02:13:44;;;;;;;;;;;;;;;1.43;74.93;103517.34;4120601;28;20028;-63
2023/01/24 02:16:03;;;;;;;;;;;;;;;1.40;74.69;103517.44;4106261;28;20037;-63
2023/01/24 02:18:05;;;;;;;;;;;;;;;1.38;74.53;103524.59;4104277;28;21593;-63
2023/01/24 02:20:09;;;;;;;;;;;;;;;1.37;73.98;103519.34;4105070;28;20537;-61
2023/01/24 02:22:13;;;;;;;;;;;;;;;1.36;73.88;103518.44;4105586;28;20083;-63
2023/01/24 02:24:18;;;;;;;;;;;;;;;1.35;74.06;103516.72;4105078;28;20024;-62
2023/01/24 02:26:22;;;;;;;;;;;;;;;1.36;74.33;103515.78;4104110;28;20381;-63
2023/01/24 02:28:24;;;;;;;;;;;;;;;1.34;73.88;103519.44;4104689;28;20048;-63
2023/01/24 02:30:27;;;;;;;;;;;;;;;1.30;73.64;103520.44;4103122;28;20053;-62
2023/01/24 02:32:29;;;;;;;;;;;;;;;1.29;74.02;103524.91;4105106;28;20028;-63
2023/01/24 02:34:31;;;;;;;;;;;;;;;1.29;74.16;103521.38;4104244;28;20025;-62
2023/01/24 02:36:34;;;;;;;;;;;;;;;1.30;73.90;103521.31;4103824;28;20025;-62
2023/01/24 02:38:36;;;;;;;;;;;;;;;1.30;73.86;103515.09;4088676;29;20009;-63
2023/01/24 02:40:38;;;;;;;;;;;;;;;1.29;73.72;103516.91;4103672;28;20098;-63
2023/01/24 02:42:41;;;;;;;;;;;;;;;1.28;73.58;103524.94;4104177;28;20009;-63
2023/01/24 02:44:46;;;;;;;;;;;;;;;1.30;73.84;103523.09;4105020;28;19997;-62
2023/01/24 02:46:48;;;;;;;;;;;;;;;1.29;73.29;103527.56;4103802;28;19964;-62
2023/01/24 02:48:50;;;;;;;;;;;;;;;1.29;73.40;103524.91;4105010;28;20021;-62
2023/01/24 02:53:30;;;;;;;;;;;;;;;1.33;72.90;103518.53;4103080;28;20027;-62
2023/01/24 02:55:32;;;;;;;;;;;;;;;1.31;72.99;103517.72;4088057;29;20033;-62
2023/01/24 02:59:55;;;;;;;;;;;;;;;1.30;72.93;103517.78;4105626;28;20363;-62
2023/01/24 03:01:57;;;;;;;;;;;;;;;1.29;72.90;103516.91;4118681;28;20475;-63
2023/01/24 03:04:00;;;;;;;;;;;;;;;1.28;72.94;103512.50;4104354;28;20477;-62
2023/01/24 03:06:02;;;;;;;;;;;;;;;1.28;73.10;103519.63;4103842;28;20029;-62
2023/01/24 03:08:10;;;;;;;;;;;;;;;1.27;73.02;103516.09;4103861;28;20431;-63
2023/01/24 03:10:13;;;;;;;;;;;;;;;1.26;73.14;103517.00;4111526;28;20484;-61
2023/01/24 03:35:53;;;;;;;;;;;;;;;1.22;73.33;103518.91;4103824;28;20029;-63
2023/01/24 03:40:17;;;;;;;;;;;;;;;1.18;72.63;103513.72;4135642;28;20028;-61
2023/01/24 03:42:21;;;;;;;;;;;;;;;1.16;72.62;103524.41;4134803;28;20016;-63
2023/01/24 03:44:23;;;;;;;;;;;;;;;1.16;72.86;103520.84;4119677;28;20021;-62
2023/01/24 03:46:25;;;;;;;;;;;;;;;1.14;72.62;103523.56;4119370;28;20025;-63
2023/01/24 03:48:36;;;;;;;;;;;;;;;1.14;72.71;103523.56;4120393;28;20021;-63
2023/01/24 03:53:04;;;;;;;;;;;;;;;1.14;72.57;103507.59;4125720;28;20483;-63
2023/01/24 03:55:07;;;;;;;;;;;;;;;1.13;72.77;103507.63;4119760;28;20013;-62
2023/01/24 03:57:09;;;;;;;;;;;;;;;1.11;72.92;103517.47;4119531;28;20017;-63
2023/01/24 03:59:13;;;;;;;;;;;;;;;1.08;73.08;103508.66;4121230;28;20024;-63
2023/01/24 04:01:16;;;;;;;;;;;;;;;1.11;73.32;103515.66;4119019;28;20025;-63
2023/01/24 04:03:33;;;;;;;;;;;;;;;1.12;73.10;103505.91;4120481;28;20027;-63
2023/01/24 04:05:35;;;;;;;;;;;;;;;1.13;73.44;103503.22;4119546;28;20013;-62
2023/01/24 04:07:37;;;;;;;;;;;;;;;1.13;73.17;103499.66;4134876;28;20037;-63
2023/01/24 04:09:41;;;;;;;;;;;;;;;1.13;73.06;103494.31;4120564;28;20041;-63
2023/01/24 04:11:43;;;;;;;;;;;;;;;1.10;72.91;103500.63;4102341;28;20876;-63
2023/01/24 04:13:49;;;;;;;;;;;;;;;1.08;72.98;103506.00;4119447;28;20021;-61
2023/01/24 04:15:52;;;;;;;;;;;;;;;1.06;73.14;103494.50;4104117;28;20349;-62
2023/01/24 04:18:17;;;;;;;;;;;;;;;1.11;73.63;103501.50;4114396;28;20032;-61
2023/01/24 04:20:21;;;;;;;;;;;;;;;1.10;73.40;103500.63;4119845;28;20016;-64
2023/01/24 04:22:23;;;;;;;;;;;;;;;1.08;73.24;103507.78;4120083;28;20022;-63
2023/01/24 04:24:27;;;;;;;;;;;;;;;1.08;73.45;103508.66;4120442;28;20028;-62
2023/01/24 04:26:29;;;;;;;;;;;;;;;1.07;73.43;103504.25;4118844;28;20033;-63
2023/01/24 04:28:32;;;;;;;;;;;;;;;1.09;73.55;103504.22;4120000;28;20037;-62
2023/01/24 04:30:37;;;;;;;;;;;;;;;1.08;73.38;103508.66;4119777;28;20440;-63
2023/01/24 04:32:44;;;;;;;;;;;;;;;1.11;73.53;103501.50;4118506;28;19958;-62
2023/01/24 04:34:51;;;;;;;;;;;;;;;1.13;73.63;103502.31;4119875;28;20546;-62
2023/01/24 04:37:05;;;;;;;;;;;;;;;1.13;73.38;103497.00;4118449;28;20113;-63
2023/01/24 04:39:10;;;;;;;;;;;;;;;1.14;73.40;103506.72;4119505;28;20017;-63
2023/01/24 04:41:22;;;;;;;;;;;;;;;1.15;73.43;103496.03;4118527;28;20012;-63
2023/01/24 04:43:25;;;;;;;;;;;;;;;1.16;73.28;103494.22;4118391;28;20017;-63
2023/01/24 04:45:27;;;;;;;;;;;;;;;1.12;72.95;103495.28;4119004;28;20484;-63
2023/01/24 04:47:32;;;;;;;;;;;;;;;1.11;73.16;103498.84;4118808;28;20021;-62
2023/01/24 04:49:34;;;;;;;;;;;;;;;1.10;73.43;103497.97;4120900;28;20024;-62
2023/01/24 04:51:41;;;;;;;;;;;;;;;1.08;73.30;103491.81;4117938;28;20013;-63
2023/01/24 04:53:45;;;;;;;;;;;;;;;1.10;73.64;103497.09;4119804;28;19925;-62
2023/01/24 04:55:50;;;;;;;;;;;;;;;1.11;73.30;103493.53;4137893;28;20421;-63
2023/01/24 04:57:52;;;;;;;;;;;;;;;1.08;73.11;103483.81;4121371;28;20386;-63
2023/01/24 04:59:54;;;;;;;;;;;;;;;1.05;73.03;103484.81;4113448;28;20029;-62
2023/01/24 05:01:56;;;;;;;;;;;;;;;1.03;73.32;103488.44;4128615;28;20012;-63
2023/01/24 05:04:17;;;;;;;;;;;;;;;1.03;73.45;103483.09;4130127;28;20040;-62
2023/01/24 05:06:20;;;;;;;;;;;;;;;1.07;73.64;103487.44;4122025;28;20025;-63
2023/01/24 05:08:22;;;;;;;;;;;;;;;1.09;73.51;103493.56;4121798;28;20029;-63
2023/01/24 05:10:25;;;;;;;;;;;;;;;1.05;73.43;103489.25;4121766;28;20024;-63
2023/01/24 05:12:28;;;;;;;;;;;;;;;1.11;73.13;103485.53;4121357;28;20025;-62
2023/01/24 05:14:33;;;;;;;;;;;;;;;1.07;72.86;103496.28;4122339;28;20430;-63
2023/01/24 05:16:35;;;;;;;;;;;;;;;1.06;72.93;103491.00;4121036;28;20033;-63
2023/01/24 05:18:37;;;;;;;;;;;;;;;1.03;73.08;103491.09;4128760;28;20021;-61
2023/01/24 05:20:39;;;;;;;;;;;;;;;1.02;73.24;103505.31;4121544;28;20060;-63
2023/01/24 05:22:46;;;;;;;;;;;;;;;1.01;73.61;103501.78;4120979;28;20020;-63
2023/01/24 05:24:49;;;;;;;;;;;;;;;1.02;73.60;103500.88;4122553;28;20016;-63
2023/01/24 05:26:52;;;;;;;;;;;;;;;1.03;73.81;103499.94;4120685;28;20223;-63
2023/01/24 05:28:59;;;;;;;;;;;;;;;1.05;73.58;103503.44;4121078;28;20032;-60
2023/01/24 05:31:01;;;;;;;;;;;;;;;1.08;73.14;103494.47;4136673;28;20020;-62
2023/01/24 05:33:05;;;;;;;;;;;;;;;1.06;73.09;103493.66;4135765;28;20033;-63
2023/01/24 05:35:09;;;;;;;;;;;;;;;1.07;72.94;103509.56;4122272;28;20013;-62
2023/01/24 05:37:11;;;;;;;;;;;;;;;1.07;73.14;103514.03;4117896;28;20020;-63
2023/01/24 05:39:17;;;;;;;;;;;;;;;1.09;73.20;103517.53;4127998;28;20021;-62
2023/01/24 05:41:21;;;;;;;;;;;;;;;1.07;73.30;103517.56;4119632;28;20040;-63
2023/01/24 05:43:26;;;;;;;;;;;;;;;1.07;72.95;103511.38;4136489;28;20016;-63
2023/01/24 05:45:28;;;;;;;;;;;;;;;1.07;73.34;103506.06;4120115;28;20020;-62
2023/01/24 05:47:31;;;;;;;;;;;;;;;1.08;73.45;103499.78;4119419;28;20008;-63
2023/01/24 05:49:34;;;;;;;;;;;;;;;1.07;73.34;103506.91;4120503;28;20661;-63
2023/01/24 05:51:36;;;;;;;;;;;;;;;1.10;73.35;103507.72;4119924;28;20467;-62
2023/01/24 05:53:41;;;;;;;;;;;;;;;1.11;73.07;103515.66;4117625;28;19930;-64
2023/01/24 05:55:46;;;;;;;;;;;;;;;1.12;73.05;103511.25;4120301;28;19940;-61
2023/01/24 05:57:51;;;;;;;;;;;;;;;1.12;73.35;103516.56;4118841;28;20024;-62
2023/01/24 06:00:03;;;;;;;;;;;;;;;1.13;73.38;103520.94;4122276;28;20399;-62
2023/01/24 06:02:18;;;;;;;;;;;;;;;1.13;73.34;103526.28;4119773;28;19980;-61
2023/01/24 06:04:25;;;;;;;;;;;;;;;1.11;73.44;103523.66;4119385;28;19957;-61
2023/01/24 06:06:27;;;;;;;;;;;;;;;1.13;73.64;103520.94;4116115;28;19948;-62
2023/01/24 06:08:29;;;;;;;;;;;;;;;1.13;73.57;103529.81;4134709;28;20009;-62
2023/01/24 06:10:32;;;;;;;;;;;;;;;1.15;73.53;103521.78;4121696;28;19926;-62
2023/01/24 06:12:40;;;;;;;;;;;;;;;1.16;73.23;103521.75;4118688;28;20032;-62
2023/01/24 06:14:42;;;;;;;;;;;;;;;1.16;73.18;103527.06;4118421;28;20602;-62
2023/01/24 06:16:46;;;;;;;;;;;;;;;1.16;73.36;103523.53;4125220;28;19926;-64
2023/01/24 06:18:50;;;;;;;;;;;;;;;1.15;73.50;103530.66;4126562;28;20013;-61
2023/01/24 06:20:52;;;;;;;;;;;;;;;1.16;73.49;103524.41;4119132;28;20029;-61
2023/01/24 06:22:54;;;;;;;;;;;;;;;1.15;73.24;103533.31;4119735;28;20020;-60
2023/01/24 06:24:58;;;;;;;;;;;;;;;1.16;73.23;103536.81;4120398;28;20029;-62
2023/01/24 06:27:05;;;;;;;;;;;;;;;1.15;73.15;103535.97;4119628;28;20016;-61
2023/01/24 06:29:08;;;;;;;;;;;;;;;1.14;72.97;103541.34;4119424;28;20016;-60
2023/01/24 06:31:12;;;;;;;;;;;;;;;1.12;73.00;103541.38;4118060;28;20029;-62
2023/01/24 06:33:24;;;;;;;;;;;;;;;1.13;73.26;103545.81;4118318;28;20138;-61
2023/01/24 06:35:27;;;;;;;;;;;;;;;1.12;73.23;103544.03;4128683;28;20028;-62
2023/01/24 06:37:30;;;;;;;;;;;;;;;1.11;73.01;103542.28;4119811;28;19926;-61
2023/01/24 06:39:32;;;;;;;;;;;;;;;1.10;73.30;103550.31;4120493;28;20014;-62
2023/01/24 06:41:34;;;;;;;;;;;;;;;1.10;73.33;103552.97;4120252;28;20420;-61
2023/01/24 06:43:36;;;;;;;;;;;;;;;1.10;73.41;103558.31;4119955;28;20487;-61
2023/01/24 06:45:38;;;;;;;;;;;;;;;1.14;73.61;103558.19;4119801;28;20020;-61
2023/01/24 06:47:40;;;;;;;;;;;;;;;1.16;73.57;103555.47;4118323;28;20028;-62
2023/01/24 06:49:44;;;;;;;;;;;;;;;1.17;73.29;103565.19;4121016;28;20576;-61
2023/01/24 06:51:49;;;;;;;;;;;;;;;1.16;73.17;103566.13;4119825;28;20025;-61
2023/01/24 06:53:51;;;;;;;;;;;;;;;1.14;73.03;103570.63;4119892;28;20020;-61
2023/01/24 06:55:53;;;;;;;;;;;;;;;1.11;72.63;103563.59;4120402;28;20009;-61
2023/01/24 06:57:55;;;;;;;;;;;;;;;1.13;72.80;103568.88;4120046;28;20660;-61
2023/01/24 06:59:57;;;;;;;;;;;;;;;1.13;72.69;103579.50;4116757;28;20377;-62
2023/01/24 07:01:59;;;;;;;;;;;;;;;1.15;72.69;103578.56;4115158;28;20029;-61
2023/01/24 07:04:01;;;;;;;;;;;;;;;1.15;72.66;103583.88;4118466;28;20021;-61
2023/01/24 07:06:04;;;;;;;;;;;;;;;1.14;72.46;103583.94;4118686;28;20032;-61
2023/01/24 07:08:06;;;;;;;;;;;;;;;1.12;72.78;103589.31;4119832;28;20013;-60
2023/01/24 07:10:09;;;;;;;;;;;;;;;1.12;72.87;103585.78;4119204;28;20443;-62
2023/01/24 07:12:11;;;;;;;;;;;;;;;1.13;73.10;103592.81;4119355;28;20048;-61
2023/01/24 07:14:13;;;;;;;;;;;;;;;1.13;72.72;103600.81;4117939;28;20037;-61
2023/01/24 07:16:15;;;;;;;;;;;;;;;1.09;72.57;103597.38;4117579;28;20024;-60
2023/01/24 07:18:18;;;;;;;;;;;;;;;1.10;72.82;103596.47;4118795;28;20412;-60
2023/01/24 07:20:21;;;;;;;;;;;;;;;1.10;73.13;103600.91;4118738;28;20017;-61
2023/01/24 07:22:25;;;;;;;;;;;;;;;1.11;73.04;103602.66;4116705;28;20017;-59
2023/01/24 07:24:27;;;;;;;;;;;;;;;1.10;72.74;103609.78;4116854;28;20012;-62
2023/01/24 07:26:30;;;;;;;;;;;;;;;1.10;72.78;103608.88;4116572;28;20028;-62
2023/01/24 07:28:32;;;;;;;;;;;;;;;1.11;73.09;103611.50;4119293;28;20469;-61
2023/01/24 07:30:33;;;;;;;;;;;;;;;1.03;72.84;103594.88;4118319;28;20025;-61
2023/01/24 07:32:35;;;;;;;;;;;;;;;1.11;72.83;103615.97;4117963;28;20052;-59
2023/01/24 07:34:38;;;;;;;;;;;;;;;1.07;72.97;103601.88;4118790;28;20817;-61
2023/01/24 07:36:41;;;;;;;;;;;;;;;1.12;73.05;103623.91;4120007;28;20024;-61
2023/01/24 07:38:44;;;;;;;;;;;;;;;1.11;73.16;103615.97;4119529;28;19966;-61
2023/01/24 07:40:46;;;;;;;;;;;;;;;1.13;73.23;103614.13;4119235;28;20586;-61
2023/01/24 07:42:48;;;;;;;;;;;;;;;1.11;73.05;103615.97;4119487;28;20348;-61
2023/01/24 07:44:50;;;;;;;;;;;;;;;1.10;72.85;103619.53;4120409;28;20013;-61
2023/01/24 07:46:52;;;;;;;;;;;;;;;1.09;73.19;103616.00;4120384;28;20017;-62
2023/01/24 07:48:54;;;;;;;;;;;;;;;1.09;73.27;103621.34;4120244;28;20543;-62
2023/01/24 07:50:58;;;;;;;;;;;;;;;1.09;73.27;103621.34;4120330;28;20025;-60
2023/01/24 07:53:00;;;;;;;;;;;;;;;1.10;73.50;103619.53;4120018;28;20021;-61
2023/01/24 07:55:04;;;;;;;;;;;;;;;1.08;73.40;103612.47;4120750;28;20021;-59
2023/01/24 07:57:07;;;;;;;;;;;;;;;1.11;73.52;103607.97;4112598;28;20013;-60
2023/01/24 07:59:09;;;;;;;;;;;;;;;1.11;73.55;103600.84;4115183;28;20463;-60
2023/01/24 08:01:16;;;;;;;;;;;;;;;1.12;73.43;103601.75;4116473;28;20322;-62
2023/01/24 08:03:18;;;;;;;;;;;;;;;1.12;73.71;103602.63;4115097;28;20037;-59
2023/01/24 08:05:20;;;;;;;;;;;;;;;1.14;73.56;103605.22;4114414;28;20025;-62
2023/01/24 08:07:22;;;;;;;;;;;;;;;1.17;73.66;103610.47;4116858;28;20009;-60
2023/01/24 08:09:24;;;;;;;;;;;;;;;1.17;73.51;103610.47;4117701;28;20024;-61
2023/01/24 08:11:27;;;;;;;;;;;;;;;1.18;73.40;103617.53;4115180;28;20024;-62
2023/01/24 08:13:29;;;;;;;;;;;;;;;1.18;73.31;103610.41;4114857;28;20028;-62
2023/01/24 08:15:31;;;;;;;;;;;;;;;1.17;73.59;103616.66;4119865;28;20025;-63
2023/01/24 08:17:33;;;;;;;;;;;;;;;1.19;73.57;103620.16;4118719;28;20025;-62
2023/01/24 08:19:36;;;;;;;;;;;;;;;1.19;73.50;103625.50;4116813;28;20381;-62
2023/01/24 08:21:38;;;;;;;;;;;;;;;1.18;73.52;103631.72;4117929;28;20052;-63
2023/01/24 08:23:40;;;;;;;;;;;;;;;1.16;73.50;103627.34;4119384;28;20037;-63
2023/01/24 08:25:42;;;;;;;;;;;;;;;1.18;73.65;103645.03;4119766;28;20029;-63
2023/01/24 08:27:45;;;;;;;;;;;;;;;1.18;73.36;103630.84;4119056;28;20025;-63
2023/01/24 08:29:47;;;;;;;;;;;;;;;1.18;73.41;103631.72;4123378;28;20057;-63
2023/01/24 08:31:49;;;;;;;;;;;;;;;1.20;73.56;103634.34;4120808;28;20020;-63
2023/01/24 08:33:51;;;;;;;;;;;;;;;1.20;73.23;103629.00;4122377;28;20025;-63
2023/01/24 08:35:53;;;;;;;;;;;;;;;1.22;73.20;103629.81;4121553;28;20017;-63
2023/01/24 08:37:55;;;;;;;;;;;;;;;1.21;73.31;103625.44;4121525;28;21775;-60
2023/01/24 08:39:57;;;;;;;;;;;;;;;1.23;73.39;103631.59;4122225;28;19926;-60
2023/01/24 08:41:59;;;;;;;;;;;;;;;1.21;73.05;103626.31;4121106;28;20030;-60
2023/01/24 08:44:03;;;;;;;;;;;;;;;1.22;73.09;103617.41;4121788;28;20018;-60
2023/01/24 08:46:05;;;;;;;;;;;;;;;1.20;72.99;103626.34;4120984;28;20028;-61
2023/01/24 08:48:07;;;;;;;;;;;;;;;1.22;72.90;103627.16;4122290;28;20443;-60
2023/01/24 08:50:09;;;;;;;;;;;;;;;1.24;72.53;103626.22;4122393;28;20025;-60
2023/01/24 08:52:11;;;;;;;;;;;;;;;1.24;72.16;103630.69;4121637;28;20016;-60
2023/01/24 08:54:13;;;;;;;;;;;;;;;1.24;72.39;103620.03;4121597;28;20025;-61
2023/01/24 08:56:15;;;;;;;;;;;;;;;1.22;72.28;103609.44;4121335;28;20033;-60
2023/01/24 08:58:17;;;;;;;;;;;;;;;1.21;72.12;103613.00;4121437;28;20025;-62
2023/01/24 09:00:21;;;;;;;;;;;;;;;1.21;72.23;103615.66;4129674;28;20461;-61
2023/01/24 09:02:23;;;;;;;;;;;;;;;1.24;72.61;103626.22;4120344;28;20025;-60
2023/01/24 09:04:26;;;;;;;;;;;;;;;1.24;72.75;103634.19;4121341;28;20020;-61
2023/01/24 09:06:28;;;;;;;;;;;;;;;1.26;72.95;103624.38;4121825;28;20582;-60
2023/01/24 09:08:30;;;;;;;;;;;;;;;1.28;72.69;103626.13;4121478;28;19972;-61
2023/01/24 09:10:32;;;;;;;;;;;;;;;1.29;72.67;103626.09;4120792;28;20029;-61
2023/01/24 09:12:34;;;;;;;;;;;;;;;1.28;72.47;103628.78;4120745;28;20021;-61
2023/01/24 09:14:36;;;;;;;;;;;;;;;1.29;72.28;103623.41;4119004;28;20032;-62
2023/01/24 09:16:39;;;;;;;;;;;;;;;1.30;72.38;103624.28;4120266;28;20008;-59
2023/01/24 09:18:41;;;;;;;;;;;;;;;1.34;72.62;103623.28;4122147;28;20020;-61
2023/01/24 09:20:43;;;;;;;;;;;;;;;1.35;72.17;103628.56;4122456;28;19934;-60
2023/01/24 09:22:45;;;;;;;;;;;;;;;1.36;72.21;103626.75;4122435;28;20029;-59
2023/01/24 09:24:47;;;;;;;;;;;;;;;1.36;72.30;103626.75;4122159;28;20025;-60
2023/01/24 09:26:49;;;;;;;;;;;;;;;1.37;72.12;103633.84;4120275;28;20371;-61
2023/01/24 09:28:51;;;;;;;;;;;;;;;1.35;71.99;103633.00;4122918;28;20037;-62
2023/01/24 09:30:53;;;;;;;;;;;;;;;1.36;72.03;103630.28;4122511;28;20366;-62
2023/01/24 09:32:56;;;;;;;;;;;;;;;1.36;72.00;103627.63;4121735;28;20025;-61
2023/01/24 09:34:58;;;;;;;;;;;;;;;1.38;72.44;103640.91;4121264;28;20447;-60
2023/01/24 09:37:00;;;;;;;;;;;;;;;1.37;72.40;103636.50;4121959;28;20037;-59
2023/01/24 09:39:02;;;;;;;;;;;;;;;1.39;72.70;103637.31;4121690;28;20020;-61
2023/01/24 09:41:07;;;;;;;;;;;;;;;1.38;72.28;103631.13;4118286;28;20542;-61
2023/01/24 09:43:12;;;;;;;;;;;;;;;1.39;72.19;103640.00;4121646;28;20461;-62
2023/01/24 09:45:16;;;;;;;;;;;;;;;1.40;72.30;103639.09;4122427;28;20492;-61
2023/01/24 09:47:19;;;;;;;;;;;;;;;1.39;72.55;103635.53;4121468;28;20471;-60
2023/01/24 09:49:26;;;;;;;;;;;;;;;1.39;72.51;103638.19;4122400;28;20040;-61
2023/01/24 09:51:29;;;;;;;;;;;;;;;1.39;72.86;103634.66;4120238;28;20393;-61
2023/01/24 09:53:31;;;;;;;;;;;;;;;1.40;73.02;103631.09;4122589;28;20033;-60
2023/01/24 09:55:33;;;;;;;;;;;;;;;1.42;73.15;103629.25;4122655;28;20029;-60
2023/01/24 09:57:38;;;;;;;;;;;;;;;1.45;73.33;103634.47;4121445;28;20024;-61
2023/01/24 09:59:41;;;;;;;;;;;;;;;1.47;73.08;103626.44;4121978;28;20349;-62
2023/01/24 10:01:43;;;;;;;;;;;;;;;1.49;73.28;103624.59;4120414;28;19937;-61
2023/01/24 10:03:46;;;;;;;;;;;;;;;1.51;73.20;103628.97;4121583;28;20025;-61
2023/01/24 10:05:50;;;;;;;;;;;;;;;1.53;73.11;103618.25;4122055;28;20025;-60
2023/01/24 10:07:55;;;;;;;;;;;;;;;1.54;73.24;103617.34;4135921;28;20021;-61
2023/01/24 10:10:00;;;;;;;;;;;;;;;1.55;73.01;103617.31;4123207;28;20456;-60
2023/01/24 10:12:04;;;;;;;;;;;;;;;1.54;73.00;103607.56;4121372;28;20020;-62
2023/01/24 10:14:22;;;;;;;;;;;;;;;1.56;73.28;103611.03;4121672;28;20614;-60
2023/01/24 10:16:58;;;;;;;;;;;;;;;1.57;73.15;103609.28;4119467;28;20033;-61
2023/01/24 10:19:03;;;;;;;;;;;;;;;1.59;73.01;103602.09;4070977;29;20029;-59
2023/01/24 10:21:28;;;;;;;;;;;;;;;1.58;73.20;103595.91;4070102;29;20018;-60
2023/01/24 10:23:32;;;;;;;;;;;;;;;1.59;73.14;103597.63;4068368;28;19968;-59
2023/01/24 10:25:37;;;;;;;;;;;;;;;1.60;72.98;103591.38;4121654;28;20029;-58
2023/01/24 10:27:40;;;;;;;;;;;;;;;1.60;73.10;103591.38;4122215;28;20030;-60
2023/01/24 10:29:42;;;;;;;;;;;;;;;1.62;73.03;103592.19;4121722;28;20016;-60
2023/01/24 10:31:44;;;;;;;;;;;;;;;1.64;73.16;103589.50;4120536;28;20431;-59
2023/01/24 10:33:47;;;;;;;;;;;;;;;1.65;73.00;103590.38;4121420;28;20496;-60
2023/01/24 10:35:55;;;;;;;;;;;;;;;1.67;73.03;103591.19;4121407;28;20024;-59
2023/01/24 10:37:59;;;;;;;;;;;;;;;1.67;73.14;103589.41;4120668;28;20020;-61
2023/01/24 10:40:05;;;;;;;;;;;;;;;1.66;73.04;103590.31;4122156;28;20029;-63
2023/01/24 10:42:10;;;;;;;;;;;;;;;1.67;73.17;103592.06;4120510;28;20024;-62
2023/01/24 10:44:14;;;;;;;;;;;;;;;1.67;72.90;103588.53;4120467;28;20032;-62
2023/01/24 10:46:20;;;;;;;;;;;;;;;1.69;73.09;103589.34;4119746;28;20056;-62
2023/01/24 10:48:28;;;;;;;;;;;;;;;1.69;73.01;103582.22;4121506;28;20026;-61
2023/01/24 10:50:34;;;;;;;;;;;;;;;1.74;73.20;103584.72;4121041;28;20629;-61
2023/01/24 10:52:36;;;;;;;;;;;;;;;1.75;73.18;103591.81;4120530;28;20041;-61
2023/01/24 10:54:43;;;;;;;;;;;;;;;1.77;72.95;103592.63;4120902;28;20017;-61
2023/01/24 10:56:46;;;;;;;;;;;;;;;1.75;72.89;103590.00;4120978;28;20683;-61
2023/01/24 10:58:55;;;;;;;;;;;;;;;1.73;72.98;103594.53;4119784;28;20025;-61
2023/01/24 11:00:58;;;;;;;;;;;;;;;1.74;72.95;103592.72;4119524;28;20017;-61
2023/01/24 11:03:01;;;;;;;;;;;;;;;1.73;73.04;103581.22;4128253;28;20029;-61
2023/01/24 11:05:03;;;;;;;;;;;;;;;1.75;73.06;103597.16;4121183;28;20483;-62
2023/01/24 11:07:05;;;;;;;;;;;;;;;1.75;73.04;103598.00;4104929;28;20601;-62
2023/01/24 11:09:10;;;;;;;;;;;;;;;1.75;73.24;103595.34;4120967;28;20029;-62
2023/01/24 11:11:18;;;;;;;;;;;;;;;1.76;73.15;103593.56;4120884;28;20016;-63
2023/01/24 11:13:40;;;;;;;;;;;;;;;1.75;73.40;103594.47;4121686;28;20021;-64
2023/01/24 11:15:47;;;;;;;;;;;;;;;1.76;73.29;103590.91;4116486;28;20032;-62
2023/01/24 11:17:49;;;;;;;;;;;;;;;1.77;73.24;103589.97;4119969;28;20025;-62
2023/01/24 11:19:57;;;;;;;;;;;;;;;1.78;73.23;103591.72;4120566;28;20020;-62